.
WxDataArchive / Data Records for 2012-02-13
2012-02-12 February 2012 2012-02-14

Data Records for Monday, 13 February 2012

Time	Temp	Chill	HIndex	Humid	Dewpt	 Wind 	HiWind	WindDir	Rain 	Barom 
-----	----	-----	------	-----	-----	------	------	-------	-----	----- 
00:00	25.3	25.3	25.3	65	15.2	1	3	248	0.00	30.224 
00:05	25.1	25.1	25.1	64	14.7	1	4	248	0.00	30.224 
00:10	25.1	25.1	25.1	64	14.7	1	3	248	0.00	30.224 
00:15	25.0	25.0	25.0	64	14.6	1	3	248	0.00	30.218 
00:20	25.0	25.0	25.0	63	14.2	1	4	248	0.00	30.218 
00:25	24.8	24.8	24.8	63	14.0	1	3	248	0.00	30.218 
00:30	24.7	24.7	24.7	63	13.9	0	2	248	0.00	30.216 
00:35	24.7	24.7	24.7	63	13.9	0	2	248	0.00	30.216 
00:40	24.5	24.5	24.5	63	13.7	0	2	248	0.00	30.216 
00:45	24.4	24.4	24.4	63	13.6	0	2	248	0.00	30.213 
00:50	24.2	24.2	24.2	63	13.4	0	3	248	0.00	30.213 
00:55	24.2	24.2	24.2	63	13.4	0	2	248	0.00	30.213 
01:00	24.1	24.1	24.1	62	13.0	0	1	248	0.00	30.212 
01:05	23.9	23.9	23.9	63	13.2	0	1	248	0.00	30.212 
01:10	23.9	23.9	23.9	62	12.8	0	3	248	0.00	30.212 
01:15	23.8	23.8	23.8	63	13.1	0	2	248	0.00	30.213 
01:20	23.6	23.6	23.6	63	12.9	0	2	248	0.00	30.213 
01:25	23.6	23.6	23.6	63	12.9	0	1	248	0.00	30.213 
01:30	23.6	23.6	23.6	62	12.5	0	3	248	0.00	30.213 
01:35	23.6	23.6	23.6	62	12.5	1	4	248	0.00	30.213 
01:40	23.8	23.8	23.8	62	12.7	1	5	248	0.00	30.213 
01:45	23.8	23.8	23.8	61	12.3	1	3	248	0.00	30.214 
01:50	23.8	23.8	23.8	61	12.3	1	3	248	0.00	30.214 
01:55	23.8	23.8	23.8	61	12.3	1	3	270	0.00	30.214 
02:00	23.8	23.8	23.8	60	12.0	1	2	270	0.00	30.217 
02:05	23.8	23.8	23.8	60	12.0	0	2	270	0.00	30.217 
02:10	23.6	23.6	23.6	60	11.8	1	4	270	0.00	30.217 
02:15	23.6	23.6	23.6	60	11.8	1	3	248	0.00	30.218 
02:20	23.5	23.5	23.5	59	11.3	1	3	248	0.00	30.218 
02:25	23.5	23.5	23.5	59	11.3	0	3	248	0.00	30.218 
02:30	23.5	23.5	23.5	59	11.3	0	2	248	0.00	30.215 
02:35	23.3	23.3	23.3	59	11.1	1	4	248	0.00	30.215 
02:40	23.3	23.3	23.3	59	11.1	1	3	248	0.00	30.215 
02:45	23.2	23.2	23.2	59	11.0	1	3	248	0.00	30.223 
02:50	23.2	23.2	23.2	59	11.0	1	3	248	0.00	30.223 
02:55	23.0	23.0	23.0	59	10.8	0	3	248	0.00	30.223 
03:00	23.0	23.0	23.0	59	10.8	1	2	248	0.00	30.222 
03:05	22.9	22.9	22.9	59	10.7	0	1	248	0.00	30.222 
03:10	22.9	22.9	22.9	59	10.7	0	4	248	0.00	30.222 
03:15	22.7	22.7	22.7	59	10.6	1	3	248	0.00	30.211 
03:20	22.7	22.7	22.7	59	10.6	0	3	248	0.00	30.211 
03:25	22.7	22.7	22.7	58	10.2	1	2	248	0.00	30.211 
03:30	22.7	22.7	22.7	58	10.2	1	2	248	0.00	30.209 
03:35	22.5	22.5	22.5	59	10.4	0	2	248	0.00	30.209 
03:40	22.4	22.4	22.4	59	10.3	0	2	248	0.00	30.209 
03:45	22.2	22.2	22.2	59	10.1	0	1	248	0.00	30.201 
03:50	22.2	22.2	22.2	59	10.1	0	1	248	0.00	30.201 
03:55	22.1	22.1	22.1	59	10.0	0	2	248	0.00	30.201 
04:00	22.1	22.1	22.1	59	10.0	0	2	248	0.00	30.196 
04:05	21.9	21.9	21.9	59	9.8	1	2	248	0.00	30.196 
04:10	21.9	21.9	21.9	59	9.8	0	2	248	0.00	30.196 
04:15	21.8	21.8	21.8	59	9.7	1	3	248	0.00	30.196 
04:20	21.8	21.8	21.8	59	9.7	1	3	248	0.00	30.196 
04:25	21.8	21.8	21.8	59	9.7	0	2	248	0.00	30.196 
04:30	21.6	21.6	21.6	60	9.9	0	1	248	0.00	30.194 
04:35	21.6	21.6	21.6	60	9.9	1	2	248	0.00	30.194 
04:40	21.4	21.4	21.4	60	9.7	0	2	248	0.00	30.194 
04:45	21.4	21.4	21.4	60	9.7	0	2	248	0.00	30.197 
04:50	21.3	21.3	21.3	60	9.6	1	3	248	0.00	30.197 
04:55	21.3	21.3	21.3	60	9.6	1	3	248	0.00	30.197 
05:00	21.3	21.3	21.3	60	9.6	1	3	248	0.00	30.201 
05:05	21.3	21.3	21.3	60	9.6	1	3	248	0.00	30.201 
05:10	21.3	21.3	21.3	60	9.6	1	4	248	0.00	30.201 
05:15	21.3	21.3	21.3	60	9.6	1	5	248	0.00	30.209 
05:20	21.3	21.3	21.3	60	9.6	1	3	248	0.00	30.209 
05:25	21.3	21.3	21.3	60	9.6	1	5	248	0.00	30.209 
05:30	21.3	21.3	21.3	60	9.6	1	3	248	0.00	30.204 
05:35	21.1	21.1	21.1	60	9.4	1	2	248	0.00	30.204 
05:40	21.1	21.1	21.1	60	9.4	0	2	248	0.00	30.204 
05:45	21.0	21.0	21.0	60	9.3	1	3	248	0.00	30.204 
05:50	21.0	21.0	21.0	60	9.3	1	3	248	0.00	30.204 
05:55	21.1	21.1	21.1	60	9.4	1	4	248	0.00	30.204 
06:00	21.1	21.1	21.1	60	9.4	1	4	248	0.00	30.202 
06:05	21.1	21.1	21.1	59	9.0	1	5	270	0.00	30.202 
06:10	21.1	21.1	21.1	59	9.0	1	2	270	0.00	30.202 
06:15	21.1	21.1	21.1	59	9.0	1	2	270	0.00	30.202 
06:20	21.1	21.1	21.1	59	9.0	1	3	270	0.00	30.202 
06:25	21.1	21.1	21.1	58	8.7	1	3	270	0.00	30.202 
06:30	21.0	21.0	21.0	59	9.0	1	3	248	0.00	30.202 
06:35	21.0	21.0	21.0	59	9.0	0	1	248	0.00	30.202 
06:40	20.6	20.6	20.6	59	8.6	0	3	248	0.00	30.202 
06:45	20.5	20.5	20.5	59	8.5	0	2	248	0.00	30.199 
06:50	20.5	20.5	20.5	59	8.5	0	3	248	0.00	30.199 
06:55	20.3	20.3	20.3	59	8.3	0	2	248	0.00	30.199 
07:00	20.3	20.3	20.3	59	8.3	0	1	248	0.00	30.198 
07:05	20.2	20.2	20.2	59	8.2	0	3	248	0.00	30.198 
07:10	20.0	20.0	20.0	59	8.0	0	1	248	0.00	30.198 
07:15	19.9	19.9	19.9	60	8.3	0	1	248	0.00	30.196 
07:20	19.7	19.7	19.7	60	8.1	0	1	248	0.00	30.196 
07:25	19.5	19.5	19.5	60	7.9	0	2	248	0.00	30.196 
07:30	19.5	19.5	19.5	61	8.3	1	3	248	0.00	30.199 
07:35	19.4	19.4	19.4	61	8.2	0	2	248	0.00	30.199 
07:40	19.4	19.4	19.4	61	8.2	0	1	248	0.00	30.199 
07:45	19.2	19.2	19.2	61	8.0	0	2	248	0.00	30.201 
07:50	19.2	19.2	19.2	62	8.3	0	2	248	0.00	30.201 
07:55	19.2	19.2	19.2	62	8.3	0	3	248	0.00	30.201 
08:00	19.2	19.2	19.2	62	8.3	0	2	248	0.00	30.204 
08:05	19.4	19.4	19.4	62	8.5	0	2	248	0.00	30.204 
08:10	19.5	19.5	19.5	62	8.6	1	3	248	0.00	30.204 
08:15	19.7	19.7	19.7	62	8.8	1	3	248	0.00	30.212 
08:20	20.0	20.0	20.0	62	9.1	1	3	248	0.00	30.212 
08:25	20.3	20.3	20.3	61	9.0	1	3	248	0.00	30.212 
08:30	20.8	20.8	20.8	60	9.1	1	5	248	0.00	30.215 
08:35	21.3	21.3	21.3	59	9.2	1	3	248	0.00	30.215 
08:40	21.6	21.6	21.6	58	9.1	1	4	248	0.00	30.215 
08:45	21.8	21.8	21.8	58	9.3	1	3	248	0.00	30.213 
08:50	22.1	22.1	22.1	57	9.2	2	5	248	0.00	30.213 
08:55	22.2	22.2	22.2	57	9.3	1	4	248	0.00	30.213 
09:00	22.7	22.7	22.7	56	9.4	1	4	248	0.00	30.220 
09:05	22.9	22.9	22.9	55	9.2	2	4	248	0.00	30.220 
09:10	23.2	23.2	23.2	54	9.1	1	3	270	0.00	30.220 
09:15	23.6	23.6	23.6	54	9.4	1	4	270	0.00	30.227 
09:20	24.1	24.1	24.1	53	9.5	1	4	248	0.00	30.227 
09:25	24.5	24.5	24.5	52	9.4	1	3	248	0.00	30.227 
09:30	25.0	25.0	25.0	51	9.5	1	3	270	0.00	30.227 
09:35	25.4	25.4	25.4	50	9.4	1	5	248	0.00	30.227 
09:40	25.7	25.7	25.7	49	9.2	2	4	248	0.00	30.227 
09:45	26.0	26.0	26.0	48	9.0	1	3	248	0.00	30.227 
09:50	26.0	26.0	26.0	46	8.1	1	3	248	0.00	30.227 
09:55	26.3	26.3	26.3	46	8.4	1	3	248	0.00	30.227 
10:00	26.6	26.6	26.6	45	8.2	1	3	248	0.00	30.224 
10:05	26.9	26.9	26.9	43	7.4	1	4	248	0.00	30.224 
10:10	27.2	27.2	27.2	44	8.2	1	3	248	0.00	30.224 
10:15	27.6	27.6	27.6	42	7.5	2	5	248	0.00	30.216 
10:20	27.9	27.9	27.9	42	7.8	1	5	292	0.00	30.216 
10:25	28.2	28.2	28.2	42	8.1	1	3	292	0.00	30.216 
10:30	28.5	28.5	28.5	42	8.4	1	4	292	0.00	30.210 
10:35	28.8	28.8	28.8	42	8.6	1	3	292	0.00	30.210 
10:40	28.8	28.8	28.8	42	8.6	2	4	292	0.00	30.210 
10:45	29.0	29.0	29.0	41	8.3	2	4	248	0.00	30.206 
10:50	29.1	29.1	29.1	41	8.4	1	3	248	0.00	30.206 
10:55	29.3	29.3	29.3	41	8.6	2	4	248	0.00	30.206 
11:00	29.3	29.3	29.3	41	8.6	2	5	270	0.00	30.209 
11:05	29.4	29.4	29.4	43	9.7	1	2	270	0.00	30.209 
11:10	29.5	29.5	29.5	41	8.7	2	4	248	0.00	30.209 
11:15	29.8	29.8	29.8	42	9.5	1	3	248	0.00	30.209 
11:20	30.0	30.0	30.0	41	9.2	1	4	248	0.00	30.209 
11:25	30.4	30.4	30.4	41	9.5	1	3	292	0.00	30.209 
11:30	30.7	30.7	30.7	40	9.3	1	4	292	0.00	30.205 
11:35	31.3	31.3	31.3	38	8.7	1	4	248	0.00	30.205 
11:40	31.3	31.3	31.3	37	8.1	3	7	248	0.00	30.205 
11:45	31.6	31.6	31.6	38	8.9	2	6	248	0.00	30.200 
11:50	31.9	31.9	31.9	37	8.6	2	4	248	0.00	30.200 
11:55	32.2	32.2	32.2	35	7.7	2	3	248	0.00	30.200 
12:00	32.4	32.4	32.4	36	8.5	1	6	248	0.00	30.196 
12:05	32.8	32.8	32.8	38	10.0	1	5	248	0.00	30.196 
12:10	32.9	32.9	32.9	36	8.9	2	4	248	0.00	30.196 
12:15	33.1	33.1	33.1	36	9.1	1	5	248	0.00	30.190 
12:20	32.9	32.9	32.9	32	6.3	1	4	270	0.00	30.190 
12:25	33.1	33.1	33.1	32	6.5	2	4	292	0.00	30.190 
12:30	33.4	33.4	33.4	33	7.4	1	4	292	0.00	30.174 
12:35	33.5	33.5	33.5	32	6.8	2	5	248	0.00	30.174 
12:40	33.5	33.5	33.5	30	5.4	1	4	248	0.00	30.174 
12:45	33.4	33.4	33.4	32	6.7	1	3	248	0.00	30.161 
12:50	33.5	33.5	33.5	32	6.8	0	1	248	0.00	30.161 
12:55	33.7	33.7	33.7	32	7.0	1	3	248	0.00	30.161 
13:00	33.5	33.5	33.5	32	6.8	1	2	248	0.00	30.155 
13:05	33.4	33.4	33.4	28	3.8	1	3	248	0.00	30.155 
13:10	33.4	33.4	33.4	30	5.3	0	2	248	0.00	30.155 
13:15	33.5	33.5	33.5	32	6.8	0	1	248	0.00	30.144 
13:20	33.7	33.7	33.7	32	7.0	1	3	248	0.00	30.144 
13:25	33.5	33.5	33.5	32	6.8	2	4	248	0.00	30.144 
13:30	33.2	33.2	33.2	32	6.6	1	5	248	0.00	30.141 
13:35	33.1	33.1	33.1	31	5.8	1	5	248	0.00	30.141 
13:40	32.9	32.9	32.9	31	5.6	1	5	270	0.00	30.141 
13:45	32.7	32.7	32.7	31	5.4	1	3	248	0.00	30.132 
13:50	32.5	32.5	32.5	32	6.0	1	5	248	0.00	30.132 
13:55	32.4	32.4	32.4	36	8.5	1	3	248	0.00	30.132 
14:00	32.2	32.2	32.2	37	8.9	1	4	248	0.00	30.125 
14:05	32.1	32.1	32.1	38	9.4	1	4	248	0.00	30.125 
14:10	32.1	32.1	32.1	39	10.0	1	3	248	0.00	30.125 
14:15	32.4	32.4	32.4	41	11.4	0	3	248	0.00	30.118 
14:20	32.7	32.7	32.7	40	11.1	1	5	248	0.00	30.118 
14:25	33.1	33.1	33.1	40	11.4	1	5	248	0.00	30.118 
14:30	33.4	33.4	33.4	39	11.1	1	3	248	0.00	30.112 
14:35	33.5	33.5	33.5	40	11.8	1	4	248	0.00	30.112 
14:40	33.7	33.7	33.7	40	12.0	1	4	248	0.00	30.112 
14:45	33.8	33.8	33.8	40	12.1	1	4	248	0.00	30.105 
14:50	34.0	34.0	34.0	39	11.7	1	5	248	0.00	30.105 
14:55	34.0	34.0	34.0	39	11.7	1	4	248	0.00	30.105 
15:00	34.1	34.1	34.1	39	11.8	1	5	248	0.00	30.104 
15:05	34.3	34.3	34.3	39	11.9	1	5	248	0.01	30.104 
15:10	34.1	34.1	34.1	40	12.3	1	3	270	0.00	30.104 
15:15	34.0	34.0	34.0	40	12.2	1	5	248	0.00	30.108 
15:20	33.7	33.7	33.7	40	12.0	1	4	248	0.00	30.108 
15:25	33.7	33.7	33.7	41	12.5	1	3	270	0.00	30.108 
15:30	34.0	34.0	34.0	41	12.8	1	3	248	0.00	30.097 
15:35	34.3	34.3	34.3	40	12.5	1	3	248	0.00	30.097 
15:40	34.7	34.7	34.7	39	12.3	1	4	248	0.00	30.097 
15:45	34.7	34.7	34.7	37	11.1	2	5	248	0.00	30.095 
15:50	34.4	34.4	34.4	39	12.0	1	4	248	0.00	30.095 
15:55	34.1	34.1	34.1	37	10.6	1	3	248	0.00	30.095 
16:00	34.0	34.0	34.0	38	11.1	1	5	248	0.00	30.088 
16:05	33.8	33.8	33.8	39	11.5	1	3	270	0.00	30.088 
16:10	33.8	33.8	33.8	40	12.1	1	3	248	0.00	30.088 
16:15	33.7	33.7	33.7	43	13.6	0	3	45	0.00	30.084 
16:20	33.7	33.7	33.7	45	14.6	0	2	22	0.00	30.084 
16:25	33.5	33.5	33.5	44	14.0	1	3	315	0.00	30.084 
16:30	33.5	33.5	33.5	43	13.4	1	4	248	0.00	30.086 
16:35	33.4	33.4	33.4	44	13.9	1	3	248	0.00	30.086 
16:40	33.2	33.2	33.2	43	13.2	1	4	248	0.00	30.086 
16:45	32.9	32.9	32.9	44	13.4	1	4	248	0.00	30.072 
16:50	32.8	32.8	32.8	44	13.3	1	5	270	0.00	30.072 
16:55	32.8	32.8	32.8	44	13.3	0	3	248	0.00	30.072 
17:00	32.7	32.7	32.7	44	13.2	1	2	248	0.00	30.065 
17:05	32.7	32.7	32.7	46	14.2	1	3	248	0.00	30.065 
17:10	32.7	32.7	32.7	47	14.7	0	1	248	0.00	30.065 
17:15	32.7	32.7	32.7	48	15.2	0	1	248	0.00	30.057 
17:20	32.7	32.7	32.7	46	14.2	0	2	248	0.00	30.057 
17:25	32.5	32.5	32.5	47	14.5	0	2	248	0.00	30.057 
17:30	32.4	32.4	32.4	47	14.4	0	2	248	0.00	30.057 
17:35	32.4	32.4	32.4	48	14.9	0	2	248	0.00	30.057 
17:40	32.4	32.4	32.4	48	14.9	0	1	248	0.00	30.057 
17:45	32.2	32.2	32.2	49	15.2	0	1	248	0.00	30.056 
17:50	32.2	32.2	32.2	47	14.3	0	1	248	0.00	30.056 
17:55	32.1	32.1	32.1	47	14.2	0	1	248	0.00	30.056 
18:00	31.9	31.9	31.9	47	14.0	0	1	248	0.00	30.052 
18:05	31.9	31.9	31.9	49	14.9	0	1	248	0.00	30.052 
18:10	31.8	31.8	31.8	50	15.3	0	1	248	0.00	30.052 
18:15	31.6	31.6	31.6	49	14.7	0	2	248	0.00	30.049 
18:20	31.6	31.6	31.6	49	14.7	0	0	---	0.00	30.049 
18:25	31.6	31.6	31.6	49	14.7	0	1	248	0.00	30.049 
18:30	31.5	31.5	31.5	49	14.6	0	1	248	0.00	30.045 
18:35	31.5	31.5	31.5	50	15.0	0	0	---	0.00	30.045 
18:40	31.5	31.5	31.5	50	15.0	0	1	248	0.00	30.045 
18:45	31.3	31.3	31.3	51	15.3	0	0	---	0.00	30.043 
18:50	31.2	31.2	31.2	52	15.6	0	0	---	0.00	30.043 
18:55	31.0	31.0	31.0	52	15.5	0	0	---	0.00	30.043 
19:00	31.0	31.0	31.0	52	15.5	0	1	248	0.00	30.042 
19:05	30.9	30.9	30.9	52	15.4	0	1	248	0.00	30.042 
19:10	30.9	30.9	30.9	52	15.4	0	2	248	0.00	30.042 
19:15	31.0	31.0	31.0	52	15.5	0	1	158	0.00	30.038 
19:20	31.0	31.0	31.0	52	15.5	0	1	158	0.00	30.038 
19:25	31.0	31.0	31.0	53	15.9	0	1	158	0.00	30.038 
19:30	31.2	31.2	31.2	54	16.5	0	0	---	0.00	30.040 
19:35	31.2	31.2	31.2	53	16.1	0	2	158	0.00	30.040 
19:40	31.2	31.2	31.2	54	16.5	0	2	158	0.00	30.040 
19:45	31.3	31.3	31.3	54	16.6	0	1	158	0.00	30.039 
19:50	31.3	31.3	31.3	55	17.0	0	3	158	0.00	30.039 
19:55	31.3	31.3	31.3	55	17.0	1	3	112	0.00	30.039 
20:00	31.5	31.5	31.5	55	17.2	0	2	112	0.00	30.034 
20:05	31.5	31.5	31.5	56	17.6	0	2	112	0.00	30.034 
20:10	31.5	31.5	31.5	56	17.6	1	3	90	0.00	30.034 
20:15	31.5	31.5	31.5	57	18.0	0	1	90	0.00	30.027 
20:20	31.5	31.5	31.5	57	18.0	0	2	90	0.00	30.027 
20:25	31.5	31.5	31.5	58	18.4	0	1	90	0.00	30.027 
20:30	31.3	31.3	31.3	58	18.3	0	1	90	0.00	30.027 
20:35	31.3	31.3	31.3	58	18.3	0	1	90	0.00	30.027 
20:40	31.3	31.3	31.3	59	18.7	0	1	90	0.00	30.027 
20:45	31.2	31.2	31.2	58	18.2	0	2	90	0.00	30.022 
20:50	31.2	31.2	31.2	59	18.6	0	3	270	0.00	30.022 
20:55	31.0	31.0	31.0	59	18.4	0	3	270	0.00	30.022 
21:00	31.0	31.0	31.0	59	18.4	0	2	112	0.00	30.017 
21:05	30.9	30.9	30.9	59	18.3	1	2	112	0.00	30.017 
21:10	30.9	30.9	30.9	59	18.3	0	1	112	0.00	30.017 
21:15	30.9	30.9	30.9	60	18.7	0	2	112	0.00	30.012 
21:20	30.9	30.9	30.9	60	18.7	1	3	112	0.00	30.012 
21:25	30.9	30.9	30.9	59	18.3	1	3	112	0.00	30.012 
21:30	31.0	31.0	31.0	60	18.8	0	2	112	0.00	30.002 
21:35	31.0	31.0	31.0	60	18.8	1	2	112	0.00	30.002 
21:40	31.0	31.0	31.0	60	18.8	0	2	112	0.00	30.002 
21:45	30.9	30.9	30.9	61	19.1	0	1	112	0.00	30.003 
21:50	30.9	30.9	30.9	61	19.1	0	1	112	0.00	30.003 
21:55	30.9	30.9	30.9	61	19.1	0	2	292	0.00	30.003 
22:00	30.9	30.9	30.9	59	18.3	1	3	292	0.00	30.005 
22:05	31.0	31.0	31.0	59	18.4	1	4	248	0.00	30.005 
22:10	31.2	31.2	31.2	58	18.2	3	9	248	0.00	30.005 
22:15	31.2	31.2	31.2	60	19.0	1	5	248	0.00	30.001 
22:20	31.2	31.2	31.2	61	19.3	1	4	270	0.00	30.001 
22:25	31.0	31.0	31.0	64	20.3	1	5	270	0.00	30.001 
22:30	30.6	30.6	30.6	68	21.3	2	7	248	0.00	30.003 
22:35	30.1	30.1	30.1	71	21.9	1	4	248	0.00	30.003 
22:40	29.7	29.7	29.7	74	22.4	2	5	248	0.00	30.003 
22:45	29.3	29.3	29.3	77	23.0	1	5	248	0.00	29.999 
22:50	29.0	29.0	29.0	78	23.0	0	2	248	0.00	29.999 
22:55	28.8	28.8	28.8	79	23.1	1	6	248	0.00	29.999 
23:00	28.7	28.7	28.7	81	23.6	1	4	248	0.00	29.995 
23:05	28.7	28.7	28.7	81	23.6	0	3	248	0.00	29.995 
23:10	28.5	28.5	28.5	81	23.4	1	3	248	0.00	29.995 
23:15	28.5	28.5	28.5	82	23.7	0	2	248	0.00	29.989 
23:20	28.5	28.5	28.5	82	23.7	0	2	248	0.00	29.989 
23:25	28.5	28.5	28.5	82	23.7	0	2	248	0.00	29.989 
23:30	28.7	28.7	28.7	81	23.6	0	2	248	0.00	29.986 
23:35	28.7	28.7	28.7	82	23.9	0	3	248	0.00	29.986 
23:40	28.7	28.7	28.7	82	23.9	1	4	248	0.00	29.986 
23:45	28.7	28.7	28.7	82	23.9	0	2	270	0.00	29.980 
23:50	28.5	28.5	28.5	83	24.0	0	2	270	0.00	29.980 
23:55	28.5	28.5	28.5	84	24.3	0	2	270	0.00	29.980 

CoCoRaHS
IN-AL-39
A2 Web Hosting
Creative Commons License
GoDaddy
search engine by freefind advanced

loaded 2018-11-15 03:22:33 • last modified 2010-11-18 10:43:29
Privacy PolicyDisclaimer
• wx.awcolley.com is powered by PmWiki v.2002016 •
• all content (unless otherwise noted) © 2018 A W Colley